Time,TemperatureF,DewpointF,PressureIn,WindDirection,WindDirectionDegrees,WindSpeedMPH,WindSpeedGustMPH,Humidity,HourlyPrecipIn,Conditions,Clouds,dailyrainin,SoftwareType,DateUTC
2013-01-29 00:01:00,14.0,9.0,30.03,SW,216,0.0,0.0,80,0.00,,,0.08,,2013-01-29 08:01:00,
2013-01-29 00:11:00,14.0,9.0,30.03,SW,216,0.0,0.0,80,0.00,,,0.08,,2013-01-29 08:11:00,
2013-01-29 00:21:00,14.0,9.0,30.03,SW,216,0.0,1.0,80,0.00,,,0.08,,2013-01-29 08:21:00,
2013-01-29 00:31:00,14.0,9.0,30.03,SW,216,0.0,1.0,80,0.00,,,0.08,,2013-01-29 08:31:00,
2013-01-29 00:41:00,14.0,9.0,30.03,SW,216,0.0,1.0,80,0.00,,,0.08,,2013-01-29 08:41:00,
2013-01-29 00:52:00,14.0,9.0,30.03,SW,216,0.0,1.0,80,0.00,,,0.08,,2013-01-29 08:52:00,
2013-01-29 01:01:00,14.0,9.0,30.03,SW,216,0.0,1.0,81,0.00,,,0.08,,2013-01-29 09:01:00,
2013-01-29 01:11:00,14.0,9.0,30.03,SW,216,0.0,1.0,81,0.00,,,0.08,,2013-01-29 09:11:00,
2013-01-29 01:21:00,14.0,9.0,30.03,SW,216,0.0,0.0,81,0.00,,,0.08,,2013-01-29 09:21:00,
2013-01-29 01:31:00,14.0,9.0,30.03,SW,216,0.0,1.0,80,0.00,,,0.08,,2013-01-29 09:31:00,
2013-01-29 01:42:00,14.0,9.0,30.03,SW,216,0.0,1.0,80,0.00,,,0.08,,2013-01-29 09:42:00,
2013-01-29 01:52:00,13.0,8.0,30.03,SW,216,0.0,1.0,80,0.00,,,0.08,,2013-01-29 09:52:00,
2013-01-29 02:01:00,13.0,8.0,30.03,SW,216,0.0,1.0,80,0.00,,,0.08,,2013-01-29 10:01:00,
2013-01-29 02:11:00,13.0,8.0,30.03,SW,216,0.0,1.0,80,0.00,,,0.08,,2013-01-29 10:11:00,
2013-01-29 02:21:00,13.0,8.0,30.03,SW,216,0.0,1.0,80,0.00,,,0.08,,2013-01-29 10:21:00,
2013-01-29 02:32:00,15.0,9.0,30.03,SW,216,0.0,0.0,78,0.00,,,0.08,,2013-01-29 10:32:00,
2013-01-29 02:41:00,15.0,9.0,30.03,SW,216,0.0,0.0,78,0.00,,,0.08,,2013-01-29 10:41:00,
2013-01-29 02:52:00,15.0,9.0,30.03,SW,216,0.0,0.0,78,0.00,,,0.08,,2013-01-29 10:52:00,
2013-01-29 03:01:00,16.0,10.0,30.03,SW,216,0.0,0.0,78,0.00,,,0.08,,2013-01-29 11:01:00,
2013-01-29 03:11:00,16.0,10.0,30.03,SW,216,0.0,0.0,78,0.00,,,0.08,,2013-01-29 11:11:00,
2013-01-29 03:21:00,15.0,9.0,30.03,SW,216,0.0,0.0,78,0.00,,,0.08,,2013-01-29 11:21:00,
2013-01-29 03:31:00,15.0,9.0,30.04,SW,216,0.0,1.0,78,0.00,,,0.08,,2013-01-29 11:31:00,
2013-01-29 03:41:00,15.0,9.0,30.04,SW,216,0.0,1.0,78,0.00,,,0.08,,2013-01-29 11:41:00,
2013-01-29 03:52:00,15.0,9.0,30.04,SW,216,0.0,0.0,78,0.00,,,0.08,,2013-01-29 11:52:00,
2013-01-29 04:02:00,15.0,9.0,30.04,SW,216,0.0,0.0,77,0.00,,,0.08,,2013-01-29 12:02:00,
2013-01-29 04:12:00,15.0,9.0,30.04,SW,216,0.0,0.0,77,0.00,,,0.08,,2013-01-29 12:12:00,
2013-01-29 04:21:00,16.0,9.0,30.04,SW,216,0.0,0.0,75,0.00,,,0.08,,2013-01-29 12:21:00,
2013-01-29 04:32:00,16.0,9.0,30.04,SW,216,0.0,0.0,75,0.00,,,0.08,,2013-01-29 12:32:00,
2013-01-29 04:42:00,16.0,9.0,30.04,SW,216,0.0,0.0,75,0.00,,,0.08,,2013-01-29 12:42:00,
2013-01-29 04:52:00,16.0,8.0,30.03,SW,216,0.0,0.0,71,0.00,,,0.08,,2013-01-29 12:52:00,
2013-01-29 05:01:00,15.0,8.0,30.04,SW,216,0.0,0.0,74,0.00,,,0.08,,2013-01-29 13:01:00,
2013-01-29 05:11:00,15.0,8.0,30.04,SW,216,0.0,0.0,74,0.00,,,0.08,,2013-01-29 13:11:00,
2013-01-29 05:22:00,15.0,9.0,30.04,SW,216,0.0,0.0,75,0.00,,,0.08,,2013-01-29 13:22:00,
2013-01-29 05:31:00,16.0,9.0,30.04,SW,216,0.0,0.0,74,0.00,,,0.08,,2013-01-29 13:31:00,
2013-01-29 05:42:00,16.0,9.0,30.04,SW,216,0.0,0.0,74,0.00,,,0.08,,2013-01-29 13:42:00,
2013-01-29 05:52:00,16.0,9.0,30.05,SW,216,0.0,0.0,74,0.00,,,0.08,,2013-01-29 13:52:00,
2013-01-29 06:01:00,15.0,9.0,30.05,SW,216,0.0,1.0,76,0.00,,,0.08,,2013-01-29 14:01:00,
2013-01-29 06:11:00,15.0,9.0,30.05,SW,216,0.0,0.0,76,0.00,,,0.08,,2013-01-29 14:11:00,
2013-01-29 06:21:00,15.0,9.0,30.05,SW,216,0.0,0.0,76,0.00,,,0.08,,2013-01-29 14:21:00,
2013-01-29 06:32:00,17.0,11.0,30.05,SW,216,0.0,0.0,78,0.00,,,0.08,,2013-01-29 14:32:00,
2013-01-29 06:42:00,17.0,11.0,30.05,SW,216,0.0,0.0,78,0.00,,,0.08,,2013-01-29 14:42:00,
2013-01-29 06:52:00,17.0,11.0,30.06,South,189,1.0,2.0,77,0.00,,,0.08,,2013-01-29 14:52:00,
2013-01-29 07:02:00,18.0,12.0,30.06,SW,236,0.0,2.0,78,0.00,,,0.08,,2013-01-29 15:02:00,
2013-01-29 07:11:00,18.0,12.0,30.06,SW,236,0.0,2.0,78,0.00,,,0.08,,2013-01-29 15:11:00,
2013-01-29 07:21:00,19.0,13.0,30.06,SW,230,0.0,0.0,78,0.00,,,0.08,,2013-01-29 15:21:00,
2013-01-29 07:32:00,21.0,16.0,30.06,SW,230,0.0,0.0,79,0.00,,,0.08,,2013-01-29 15:32:00,
2013-01-29 07:42:00,21.0,16.0,30.06,SW,230,0.0,0.0,79,0.00,,,0.08,,2013-01-29 15:42:00,
2013-01-29 07:52:00,22.0,16.0,30.06,SW,230,0.0,0.0,78,0.00,,,0.08,,2013-01-29 15:52:00,
2013-01-29 08:02:00,23.0,17.0,30.07,SW,236,0.0,0.0,78,0.00,,,0.08,,2013-01-29 16:02:00,
2013-01-29 08:12:00,23.0,17.0,30.07,SW,236,0.0,0.0,78,0.00,,,0.08,,2013-01-29 16:12:00,
2013-01-29 08:21:00,26.0,20.0,30.07,SSW,210,0.0,0.0,78,0.00,,,0.08,,2013-01-29 16:21:00,
2013-01-29 08:32:00,29.0,23.0,30.07,SSW,205,1.0,3.0,78,0.00,,,0.08,,2013-01-29 16:32:00,
2013-01-29 08:42:00,29.0,23.0,30.07,SSW,205,1.0,3.0,78,0.00,,,0.08,,2013-01-29 16:42:00,
2013-01-29 08:52:00,30.0,19.0,30.07,SSW,213,0.0,3.0,62,0.00,,,0.08,,2013-01-29 16:52:00,
2013-01-29 09:02:00,33.0,20.0,30.08,SSW,209,1.0,5.0,59,0.00,,,0.08,,2013-01-29 17:02:00,
2013-01-29 09:11:00,33.0,20.0,30.08,SSW,209,1.0,5.0,59,0.00,,,0.08,,2013-01-29 17:11:00,
2013-01-29 09:21:00,35.0,22.0,30.08,SSW,193,2.0,5.0,59,0.00,,,0.08,,2013-01-29 17:21:00,
2013-01-29 09:32:00,38.0,22.0,30.08,SSW,199,2.0,6.0,53,0.00,,,0.08,,2013-01-29 17:32:00,
2013-01-29 09:41:00,38.0,22.0,30.08,SSW,199,2.0,6.0,53,0.00,,,0.08,,2013-01-29 17:41:00,
2013-01-29 09:52:00,39.0,22.0,30.09,SSW,208,2.0,6.0,51,0.00,,,0.08,,2013-01-29 17:52:00,
2013-01-29 10:03:00,41.0,24.0,30.09,SSE,147,3.0,4.0,50,0.00,,,0.09,,2013-01-29 18:03:00,
2013-01-29 10:12:00,41.0,24.0,30.09,SSE,147,3.0,4.0,50,0.00,,,0.09,,2013-01-29 18:12:00,
2013-01-29 10:21:00,42.0,25.0,30.10,NNE,21,2.0,9.0,50,0.00,,,0.09,,2013-01-29 18:21:00,
2013-01-29 10:33:00,44.0,22.0,30.10,WSW,239,3.0,12.0,41,0.00,,,0.10,,2013-01-29 18:33:00,
2013-01-29 10:42:00,44.0,22.0,30.10,WSW,239,3.0,12.0,41,0.00,,,0.10,,2013-01-29 18:42:00,
2013-01-29 10:51:00,44.0,22.0,30.10,SSW,195,3.0,5.0,41,0.00,,,0.10,,2013-01-29 18:51:00,
2013-01-29 11:02:00,45.0,22.0,30.11,WSW,251,2.0,6.0,40,0.00,,,0.11,,2013-01-29 19:02:00,
2013-01-29 11:11:00,45.0,22.0,30.11,WSW,251,2.0,6.0,40,0.00,,,0.11,,2013-01-29 19:11:00,
2013-01-29 11:22:00,45.0,22.0,30.11,SSW,202,1.0,6.0,39,0.00,,,0.11,,2013-01-29 19:22:00,
2013-01-29 11:32:00,45.0,22.0,30.11,SSW,203,2.0,10.0,40,0.00,,,0.11,,2013-01-29 19:32:00,
2013-01-29 11:41:00,45.0,22.0,30.11,SSW,203,2.0,10.0,40,0.00,,,0.11,,2013-01-29 19:41:00,
2013-01-29 11:51:00,46.0,22.0,30.11,WNW,291,1.0,2.0,38,0.00,,,0.11,,2013-01-29 19:51:00,
2013-01-29 12:02:00,48.0,23.0,30.11,South,186,0.0,2.0,37,0.00,,,0.11,,2013-01-29 20:02:00,
2013-01-29 12:11:00,48.0,23.0,30.11,South,186,0.0,2.0,37,0.00,,,0.11,,2013-01-29 20:11:00,
2013-01-29 12:21:00,48.0,24.0,30.11,SW,222,1.0,7.0,38,0.00,,,0.11,,2013-01-29 20:21:00,
2013-01-29 12:32:00,48.0,22.0,30.11,WSW,254,3.0,16.0,36,0.00,,,0.11,,2013-01-29 20:32:00,
2013-01-29 12:41:00,48.0,22.0,30.11,WSW,254,3.0,16.0,36,0.00,,,0.11,,2013-01-29 20:41:00,
2013-01-29 12:52:00,48.0,23.0,30.11,SSW,203,2.0,16.0,37,0.00,,,0.11,,2013-01-29 20:52:00,
2013-01-29 13:02:00,49.0,24.0,30.10,SSW,213,1.0,6.0,37,0.00,,,0.11,,2013-01-29 21:02:00,
2013-01-29 13:11:00,49.0,24.0,30.10,SSW,213,1.0,6.0,37,0.00,,,0.11,,2013-01-29 21:11:00,
2013-01-29 13:21:00,50.0,25.0,30.10,SW,220,0.0,9.0,37,0.00,,,0.10,,2013-01-29 21:21:00,
2013-01-29 13:33:00,50.0,25.0,30.10,WNW,295,2.0,9.0,37,0.00,,,0.10,,2013-01-29 21:33:00,
2013-01-29 13:41:00,50.0,25.0,30.10,WNW,295,2.0,9.0,37,0.00,,,0.10,,2013-01-29 21:41:00,
2013-01-29 13:52:00,50.0,22.0,30.10,WNW,298,1.0,6.0,33,0.00,,,0.08,,2013-01-29 21:52:00,
2013-01-29 14:01:00,49.0,21.0,30.10,West,265,3.0,9.0,33,0.00,,,0.08,,2013-01-29 22:01:00,
2013-01-29 14:11:00,49.0,21.0,30.10,West,265,3.0,9.0,33,0.00,,,0.08,,2013-01-29 22:11:00,
2013-01-29 14:21:00,49.0,22.0,30.10,ENE,64,3.0,13.0,34,0.00,,,0.06,,2013-01-29 22:21:00,
2013-01-29 14:32:00,49.0,22.0,30.10,NNE,23,3.0,13.0,34,0.00,,,0.06,,2013-01-29 22:32:00,
2013-01-29 14:42:00,49.0,22.0,30.10,NNE,23,3.0,13.0,34,0.00,,,0.06,,2013-01-29 22:42:00,
2013-01-29 14:53:00,49.0,22.0,30.10,SSW,208,3.0,5.0,34,0.00,,,0.06,,2013-01-29 22:53:00,
2013-01-29 15:01:00,50.0,20.0,30.11,North,0,6.0,7.0,30,0.00,,,0.05,,2013-01-29 23:01:00,
2013-01-29 15:11:00,50.0,20.0,30.11,North,0,6.0,7.0,30,0.00,,,0.05,,2013-01-29 23:11:00,
2013-01-29 15:22:00,50.0,20.0,30.10,WNW,289,3.0,10.0,30,0.00,,,0.05,,2013-01-29 23:22:00,
2013-01-29 15:32:00,50.0,19.0,30.10,West,278,3.0,7.0,29,0.00,,,0.04,,2013-01-29 23:32:00,
2013-01-29 15:41:00,50.0,19.0,30.10,West,278,3.0,7.0,29,0.00,,,0.04,,2013-01-29 23:41:00,
2013-01-29 15:52:00,51.0,20.0,30.10,NNE,28,1.0,5.0,29,0.00,,,0.04,,2013-01-29 23:52:00,
2013-01-29 16:02:00,51.0,20.0,30.10,NNE,28,1.0,5.0,29,0.00,,,0.04,,2013-01-30 00:02:00,
2013-01-29 16:11:00,51.0,20.0,30.10,NNE,28,1.0,5.0,29,0.00,,,0.04,,2013-01-30 00:11:00,
2013-01-29 16:21:00,51.0,20.0,30.10,NNE,28,1.0,5.0,29,0.00,,,0.04,,2013-01-30 00:21:00,
2013-01-29 16:53:00,48.0,18.0,30.11,North,3,0.0,0.0,30,0.00,,,0.03,,2013-01-30 00:53:00,
2013-01-29 17:01:00,48.0,18.0,30.11,North,3,0.0,0.0,30,0.00,,,0.03,,2013-01-30 01:01:00,
2013-01-29 17:11:00,48.0,18.0,30.11,North,3,0.0,0.0,30,0.00,,,0.03,,2013-01-30 01:11:00,
2013-01-29 17:22:00,46.0,17.0,30.12,WNW,289,0.0,2.0,31,0.00,,,0.03,,2013-01-30 01:22:00,
2013-01-29 17:32:00,45.0,19.0,30.12,North,356,0.0,0.0,35,0.00,,,0.03,,2013-01-30 01:32:00,
2013-01-29 17:42:00,45.0,19.0,30.12,North,356,0.0,0.0,35,0.00,,,0.03,,2013-01-30 01:42:00,
2013-01-29 17:52:00,45.0,19.0,30.13,NNW,332,1.0,0.0,35,0.00,,,0.03,,2013-01-30 01:52:00,
2013-01-29 18:01:00,45.0,19.0,30.13,NNE,25,1.0,6.0,35,0.00,,,0.03,,2013-01-30 02:01:00,
2013-01-29 18:11:00,45.0,19.0,30.13,NNE,25,1.0,6.0,35,0.00,,,0.03,,2013-01-30 02:11:00,
2013-01-29 18:21:00,45.0,18.0,30.14,NNE,16,0.0,1.0,34,0.00,,,0.03,,2013-01-30 02:21:00,
2013-01-29 18:32:00,45.0,20.0,30.14,North,11,0.0,5.0,36,0.00,,,0.03,,2013-01-30 02:32:00,
2013-01-29 18:41:00,45.0,20.0,30.14,North,11,0.0,5.0,36,0.00,,,0.03,,2013-01-30 02:41:00,
2013-01-29 18:53:00,45.0,20.0,30.14,North,3,0.0,10.0,36,0.00,,,0.03,,2013-01-30 02:53:00,
2013-01-29 19:02:00,45.0,20.0,30.14,NW,319,3.0,6.0,36,0.00,,,0.03,,2013-01-30 03:02:00,
2013-01-29 19:11:00,45.0,20.0,30.14,NW,319,3.0,6.0,36,0.00,,,0.03,,2013-01-30 03:11:00,
2013-01-29 19:21:00,46.0,19.0,30.15,North,0,3.0,6.0,34,0.00,,,0.03,,2013-01-30 03:21:00,
2013-01-29 19:31:00,46.0,19.0,30.15,NNW,335,0.0,0.0,34,0.00,,,0.03,,2013-01-30 03:31:00,
2013-01-29 19:41:00,46.0,19.0,30.15,NNW,335,0.0,0.0,34,0.00,,,0.03,,2013-01-30 03:41:00,
2013-01-29 19:52:00,46.0,19.0,30.15,NNW,335,0.0,0.0,34,0.00,,,0.03,,2013-01-30 03:52:00,
2013-01-29 20:01:00,44.0,21.0,30.16,NNE,21,1.0,7.0,39,0.00,,,0.03,,2013-01-30 04:01:00,
2013-01-29 20:11:00,44.0,21.0,30.16,NNE,21,1.0,7.0,39,0.00,,,0.03,,2013-01-30 04:11:00,
2013-01-29 20:22:00,43.0,22.0,30.17,NNE,21,0.0,0.0,43,0.00,,,0.03,,2013-01-30 04:22:00,
2013-01-29 20:31:00,41.0,21.0,30.17,NNE,25,0.0,0.0,45,0.00,,,0.03,,2013-01-30 04:31:00,
2013-01-29 20:41:00,41.0,21.0,30.17,NNE,25,0.0,0.0,45,0.00,,,0.03,,2013-01-30 04:41:00,
2013-01-29 20:51:00,41.0,21.0,30.17,NNE,25,0.0,0.0,45,0.00,,,0.03,,2013-01-30 04:51:00,
2013-01-29 21:03:00,39.0,19.0,30.18,North,8,0.0,0.0,45,0.00,,,0.03,,2013-01-30 05:03:00,
2013-01-29 21:11:00,38.0,21.0,30.19,North,8,0.0,0.0,49,0.00,,,0.03,,2013-01-30 05:11:00,
2013-01-29 21:22:00,38.0,21.0,30.19,North,8,0.0,0.0,49,0.00,,,0.03,,2013-01-30 05:22:00,
2013-01-29 21:32:00,37.0,21.0,30.19,NNE,31,0.0,0.0,51,0.00,,,0.03,,2013-01-30 05:32:00,
2013-01-29 21:42:00,37.0,21.0,30.19,NNE,31,0.0,0.0,51,0.00,,,0.03,,2013-01-30 05:42:00,
2013-01-29 21:52:00,37.0,21.0,30.19,North,1,0.0,0.0,51,0.00,,,0.03,,2013-01-30 05:52:00,
2013-01-29 22:02:00,37.0,21.0,30.19,NNE,18,0.0,4.0,53,0.00,,,0.03,,2013-01-30 06:02:00,
2013-01-29 22:11:00,37.0,21.0,30.19,NNE,18,0.0,4.0,53,0.00,,,0.03,,2013-01-30 06:11:00,
2013-01-29 22:21:00,38.0,22.0,30.19,NE,48,0.0,5.0,51,0.00,,,0.03,,2013-01-30 06:21:00,
2013-01-29 22:31:00,39.0,21.0,30.19,North,6,0.0,5.0,48,0.00,,,0.03,,2013-01-30 06:31:00,
2013-01-29 22:41:00,39.0,21.0,30.19,North,6,0.0,5.0,48,0.00,,,0.03,,2013-01-30 06:41:00,
2013-01-29 22:51:00,38.0,20.0,30.20,ENE,73,0.0,0.0,48,0.00,,,0.03,,2013-01-30 06:51:00,
2013-01-29 23:01:00,38.0,22.0,30.21,NNE,24,0.0,0.0,51,0.00,,,0.03,,2013-01-30 07:01:00,
2013-01-29 23:11:00,38.0,22.0,30.21,NNE,24,0.0,0.0,51,0.00,,,0.03,,2013-01-30 07:11:00,
2013-01-29 23:21:00,38.0,22.0,30.21,North,10,0.0,1.0,51,0.00,,,0.03,,2013-01-30 07:21:00,
2013-01-29 23:31:00,37.0,21.0,30.22,North,10,0.0,0.0,51,0.00,,,0.03,,2013-01-30 07:31:00,
2013-01-29 23:41:00,37.0,21.0,30.22,North,10,0.0,0.0,51,0.00,,,0.03,,2013-01-30 07:41:00,
2013-01-29 23:52:00,36.0,20.0,30.22,North,10,0.0,0.0,51,0.00,,,0.03,,2013-01-30 07:52:00,